createdAt,value
2023-02-27T00:00:31.923Z,103512.31
2023-02-27T00:02:59.605Z,103518.47
2023-02-27T00:05:27.367Z,103513.22
2023-02-27T00:07:54.918Z,103522.91
2023-02-27T00:10:22.492Z,103529.06
2023-02-27T00:12:50.076Z,103533.47
2023-02-27T00:15:19.879Z,103535.22
2023-02-27T00:17:47.502Z,103537.00
2023-02-27T00:20:18.225Z,103534.34
2023-02-27T00:22:46.601Z,103541.38
2023-02-27T00:25:15.262Z,103543.16
2023-02-27T00:27:42.857Z,103541.41
2023-02-27T00:30:15.522Z,103542.28
2023-02-27T00:32:43.901Z,103546.69
2023-02-27T00:35:12.605Z,103547.56
2023-02-27T00:37:40.432Z,103548.47
2023-02-27T00:40:08.962Z,103544.94
2023-02-27T00:42:36.589Z,103542.31
2023-02-27T00:45:06.101Z,103539.69
2023-02-27T00:47:35.201Z,103545.88
2023-02-27T00:50:02.765Z,103545.84
2023-02-27T00:52:30.460Z,103552.00
2023-02-27T00:54:59.922Z,103552.03
2023-02-27T00:57:27.688Z,103548.53
2023-02-27T00:59:55.305Z,103542.38
2023-02-27T01:02:23.030Z,103541.53
2023-02-27T01:04:50.578Z,103546.78
2023-02-27T01:07:18.464Z,103542.38
2023-02-27T01:09:46.134Z,103542.38
2023-02-27T01:12:15.310Z,103541.53
2023-02-27T01:14:45.051Z,103534.50
2023-02-27T01:17:12.856Z,103544.16
2023-02-27T01:19:40.510Z,103547.69
2023-02-27T01:22:08.142Z,103547.66
2023-02-27T01:24:35.710Z,103546.81
2023-02-27T01:27:03.291Z,103548.59
2023-02-27T01:29:30.834Z,103551.19
2023-02-27T01:31:58.583Z,103554.72
2023-02-27T01:34:26.191Z,103545.09
2023-02-27T01:36:53.798Z,103548.59
2023-02-27T01:39:21.451Z,103550.38
2023-02-27T01:41:49.450Z,103555.63
2023-02-27T01:44:17.017Z,103553.00
2023-02-27T01:46:44.704Z,103540.72
2023-02-27T01:49:21.809Z,103550.34
2023-02-27T01:52:02.490Z,103539.84
2023-02-27T01:54:32.538Z,103545.09
2023-02-27T01:57:06.849Z,103540.72
2023-02-27T01:59:37.157Z,103543.38
2023-02-27T02:02:21.506Z,103535.47
2023-02-27T02:04:51.227Z,103538.13
2023-02-27T02:07:21.347Z,103529.34
2023-02-27T02:09:53.028Z,103534.59
2023-02-27T02:12:24.907Z,103531.09
2023-02-27T02:14:52.658Z,103533.72
2023-02-27T02:17:59.049Z,103546.00
2023-02-27T02:20:38.648Z,103539.84
2023-02-27T02:23:35.582Z,103541.59
2023-02-27T02:26:45.875Z,103542.50
2023-02-27T02:29:28.464Z,103543.38
2023-02-27T02:32:11.206Z,103540.72
2023-02-27T02:34:52.445Z,103551.25
2023-02-27T02:37:38.034Z,103544.25
2023-02-27T02:40:24.649Z,103552.13
2023-02-27T02:43:08.632Z,103539.88
2023-02-27T02:46:23.985Z,103546.00
2023-02-27T02:48:51.495Z,103556.50
2023-02-27T02:51:30.972Z,103553.00
2023-02-27T02:54:04.418Z,103559.13
2023-02-27T02:56:54.331Z,103550.38
2023-02-27T02:59:30.379Z,103552.16
2023-02-27T03:02:03.836Z,103559.13
2023-02-27T03:04:40.938Z,103551.28
2023-02-27T03:07:19.578Z,103544.25
2023-02-27T03:10:06.310Z,103554.78
2023-02-27T03:12:35.933Z,103553.91
2023-02-27T03:15:09.484Z,103545.13
2023-02-27T03:17:56.030Z,103537.22
2023-02-27T03:20:32.623Z,103540.72
2023-02-27T03:23:05.858Z,103544.25
2023-02-27T03:25:35.344Z,103545.13
2023-02-27T03:28:09.528Z,103544.22
2023-02-27T03:30:49.791Z,103533.72
2023-02-27T03:33:32.004Z,103545.97
2023-02-27T03:36:17.696Z,103540.72
2023-02-27T03:38:50.914Z,103543.34
2023-02-27T03:41:34.748Z,103538.09
2023-02-27T03:44:18.147Z,103542.47
2023-02-27T03:46:46.111Z,103542.47
2023-02-27T03:49:13.786Z,103546.00
2023-02-27T03:51:41.566Z,103544.25
2023-02-27T03:54:27.211Z,103546.88
2023-02-27T03:57:09.024Z,103547.75
2023-02-27T03:59:38.053Z,103556.53
2023-02-27T04:02:05.955Z,103558.28
2023-02-27T04:04:38.774Z,103563.53
2023-02-27T04:07:24.623Z,103560.94
2023-02-27T04:10:30.946Z,103565.31
2023-02-27T04:13:23.328Z,103567.94
2023-02-27T04:15:50.920Z,103553.91
2023-02-27T04:18:33.540Z,103554.78
2023-02-27T04:21:24.315Z,103564.44
2023-02-27T04:24:22.678Z,103555.66
2023-02-27T04:26:58.245Z,103561.78
2023-02-27T04:29:39.621Z,103555.66
2023-02-27T04:32:25.698Z,103564.41
2023-02-27T04:35:02.300Z,103562.66
2023-02-27T04:37:32.717Z,103551.28
2023-02-27T04:40:06.307Z,103560.91
2023-02-27T04:42:38.971Z,103562.66
2023-02-27T04:45:11.850Z,103559.13
2023-02-27T04:47:50.057Z,103560.88
2023-02-27T04:50:33.249Z,103552.97
2023-02-27T04:53:07.176Z,103552.94
2023-02-27T04:55:41.519Z,103564.34
2023-02-27T04:58:40.596Z,103559.06
2023-02-27T05:01:16.902Z,103561.72
2023-02-27T05:03:49.755Z,103563.44
2023-02-27T05:06:21.976Z,103569.56
2023-02-27T05:08:55.522Z,103564.28
2023-02-27T05:11:33.144Z,103566.03
2023-02-27T05:14:28.142Z,103566.91
2023-02-27T05:17:21.021Z,103566.88
2023-02-27T05:19:49.271Z,103573.84
2023-02-27T05:22:26.778Z,103564.22
2023-02-27T05:25:12.796Z,103565.13
2023-02-27T05:27:47.040Z,103555.47
2023-02-27T05:30:34.660Z,103565.13
2023-02-27T05:33:07.896Z,103566.00
2023-02-27T05:35:47.890Z,103573.88
2023-02-27T05:38:27.385Z,103567.75
2023-02-27T05:41:01.913Z,103574.72
2023-02-27T05:43:35.115Z,103577.34
2023-02-27T05:46:16.040Z,103583.47
2023-02-27T05:48:54.463Z,103580.84
2023-02-27T05:51:26.858Z,103577.31
2023-02-27T05:54:00.060Z,103579.06
2023-02-27T05:56:32.696Z,103585.16
2023-02-27T05:59:18.204Z,103579.91
2023-02-27T06:01:46.656Z,103589.53
2023-02-27T06:04:14.387Z,103586.91
2023-02-27T06:06:42.135Z,103579.03
2023-02-27T06:09:09.920Z,103578.09
2023-02-27T06:11:37.496Z,103586.00
2023-02-27T06:14:05.089Z,103580.75
2023-02-27T06:16:32.947Z,103580.75
2023-02-27T06:19:04.864Z,103573.72
2023-02-27T06:21:32.836Z,103585.09
2023-02-27T06:24:00.359Z,103587.72
2023-02-27T06:26:28.254Z,103592.94
2023-02-27T06:28:55.999Z,103581.53
2023-02-27T06:31:23.587Z,103580.66
2023-02-27T06:33:51.094Z,103577.19
2023-02-27T06:36:18.714Z,103579.81
2023-02-27T06:38:46.305Z,103588.53
2023-02-27T06:41:13.857Z,103584.16
2023-02-27T06:43:41.466Z,103584.16
2023-02-27T06:46:09.150Z,103582.41
2023-02-27T06:48:36.854Z,103587.66
2023-02-27T06:51:05.083Z,103587.63
2023-02-27T06:53:33.574Z,103593.72
2023-02-27T06:56:01.196Z,103583.25
2023-02-27T06:58:28.793Z,103599.00
2023-02-27T07:00:59.652Z,103595.50
2023-02-27T07:03:30.298Z,103599.91
2023-02-27T07:05:59.112Z,103604.28
2023-02-27T07:08:26.709Z,103605.16
2023-02-27T07:10:54.460Z,103599.06
2023-02-27T07:13:22.032Z,103600.81
2023-02-27T07:15:50.598Z,103609.56
2023-02-27T07:18:18.292Z,103606.94
2023-02-27T07:20:45.949Z,103605.19
2023-02-27T07:23:13.518Z,103615.69
2023-02-27T07:25:41.149Z,103614.81
2023-02-27T07:28:08.723Z,103617.47
2023-02-27T07:30:36.408Z,103619.22
2023-02-27T07:33:04.115Z,103621.84
2023-02-27T07:35:32.001Z,103629.72
2023-02-27T07:37:59.526Z,103631.50
2023-02-27T07:40:27.136Z,103632.41
2023-02-27T07:42:54.978Z,103642.09
2023-02-27T07:45:23.372Z,103647.34
2023-02-27T07:47:51.013Z,103648.25
2023-02-27T07:50:18.796Z,103645.69
2023-02-27T07:52:46.404Z,103653.63
2023-02-27T07:55:14.444Z,103654.53
2023-02-27T07:57:42.016Z,103658.06
2023-02-27T08:00:11.826Z,103656.38
2023-02-27T08:02:42.068Z,103662.53
2023-02-27T08:05:10.034Z,103659.94
2023-02-27T08:07:37.618Z,103666.09
2023-02-27T08:10:06.359Z,103661.72
2023-02-27T08:12:34.152Z,103659.13
2023-02-27T08:15:01.843Z,103662.66
2023-02-27T08:17:29.387Z,103671.41
2023-02-27T08:19:56.964Z,103668.81
2023-02-27T08:22:24.512Z,103666.19
2023-02-27T08:24:52.222Z,103673.19
2023-02-27T08:27:19.765Z,103676.72
2023-02-27T08:29:47.424Z,103678.47
2023-02-27T08:32:15.115Z,103685.50
2023-02-27T08:34:42.680Z,103679.38
2023-02-27T08:37:10.303Z,103680.22
2023-02-27T08:39:37.957Z,103689.03
2023-02-27T08:42:07.164Z,103687.25
2023-02-27T08:44:34.768Z,103688.13
2023-02-27T08:47:02.378Z,103698.63
2023-02-27T08:49:30.158Z,103695.13
2023-02-27T08:51:57.798Z,103695.97
2023-02-27T08:54:25.382Z,103701.22
2023-02-27T08:56:52.986Z,103701.19
2023-02-27T08:59:20.756Z,103703.81
2023-02-27T09:01:48.355Z,103708.19
2023-02-27T09:04:16.336Z,103715.22
2023-02-27T09:06:43.908Z,103709.94
2023-02-27T09:09:11.659Z,103712.50
2023-02-27T09:11:39.266Z,103715.09
2023-02-27T09:14:07.341Z,103715.09
2023-02-27T09:16:35.569Z,103715.94
2023-02-27T09:19:03.516Z,103716.75
2023-02-27T09:21:31.483Z,103714.09
2023-02-27T09:24:02.636Z,103714.00
2023-02-27T09:26:43.665Z,103726.25
2023-02-27T09:29:13.462Z,103720.88
2023-02-27T09:31:41.212Z,103719.88
2023-02-27T09:34:08.934Z,103720.66
2023-02-27T09:36:36.518Z,103727.59
2023-02-27T09:39:04.146Z,103727.44
2023-02-27T09:41:45.212Z,103713.22
2023-02-27T09:44:39.756Z,103726.31
2023-02-27T09:47:23.918Z,103727.94
2023-02-27T09:50:28.791Z,103730.53
2023-02-27T09:52:57.342Z,103740.22
2023-02-27T09:55:29.965Z,103738.38
2023-02-27T09:58:14.401Z,103736.28
2023-02-27T10:00:48.941Z,103734.22
2023-02-27T10:03:24.787Z,103738.25
2023-02-27T10:06:20.383Z,103737.94
2023-02-27T10:09:17.426Z,103735.88
2023-02-27T10:12:12.421Z,103733.06
2023-02-27T10:14:49.601Z,103732.47
2023-02-27T10:17:38.891Z,103735.63
2023-02-27T10:20:31.369Z,103736.41
2023-02-27T10:23:04.375Z,103737.09
2023-02-27T10:25:40.003Z,103735.94
2023-02-27T10:28:17.092Z,103737.38
2023-02-27T10:30:51.969Z,103741.13
2023-02-27T10:33:36.978Z,103732.63
2023-02-27T10:36:18.088Z,103736.09
2023-02-27T10:38:59.006Z,103738.00
2023-02-27T10:41:28.398Z,103735.56
2023-02-27T10:44:00.067Z,103735.50
2023-02-27T10:46:33.170Z,103740.47
2023-02-27T10:49:05.608Z,103735.00
2023-02-27T10:51:38.369Z,103738.53
2023-02-27T10:54:17.187Z,103731.34
2023-02-27T10:56:52.250Z,103741.53
2023-02-27T10:59:27.540Z,103737.50
2023-02-27T11:01:58.940Z,103735.22
2023-02-27T11:04:34.342Z,103735.41
2023-02-27T11:07:05.861Z,103738.00
2023-02-27T11:09:35.039Z,103731.41
2023-02-27T11:12:20.670Z,103733.81
2023-02-27T11:14:56.800Z,103742.28
2023-02-27T11:17:35.185Z,103741.81
2023-02-27T11:20:07.959Z,103736.53
2023-02-27T11:22:35.850Z,103741.84
2023-02-27T11:25:24.883Z,103742.84
2023-02-27T11:27:54.598Z,103748.50
2023-02-27T11:30:28.951Z,103747.00
2023-02-27T11:32:59.258Z,103740.25
2023-02-27T11:35:39.310Z,103741.94
2023-02-27T11:38:24.709Z,103745.47
2023-02-27T11:40:59.622Z,103736.69
2023-02-27T11:43:34.779Z,103738.31
2023-02-27T11:46:37.034Z,103736.31
2023-02-27T11:49:01.496Z,103733.13
2023-02-27T11:51:32.887Z,103736.34
2023-02-27T11:54:21.028Z,103735.31
2023-02-27T11:57:20.810Z,103730.09
2023-02-27T11:59:55.745Z,103732.16
2023-02-27T12:02:34.649Z,103725.44
2023-02-27T12:05:14.366Z,103731.19
2023-02-27T12:07:57.811Z,103724.94
2023-02-27T12:10:30.860Z,103721.38
2023-02-27T12:12:58.602Z,103720.50
2023-02-27T12:16:04.477Z,103721.81
2023-02-27T12:18:41.631Z,103717.50
2023-02-27T12:21:18.735Z,103722.69
2023-02-27T12:23:50.163Z,103717.47
2023-02-27T12:26:50.266Z,103711.28
2023-02-27T12:29:33.839Z,103713.00
2023-02-27T12:32:14.343Z,103713.81
2023-02-27T12:34:47.478Z,103705.16
2023-02-27T12:37:21.461Z,103705.34
2023-02-27T12:39:49.279Z,103708.91
2023-02-27T12:42:36.724Z,103711.75
2023-02-27T12:45:42.020Z,103699.03
2023-02-27T12:49:01.988Z,103688.53
2023-02-27T12:51:38.417Z,103691.28
2023-02-27T12:54:18.284Z,103702.09
2023-02-27T12:57:00.945Z,103692.47
2023-02-27T12:59:45.905Z,103694.56
2023-02-27T13:02:29.123Z,103689.53
2023-02-27T13:05:06.252Z,103687.09
2023-02-27T13:07:38.819Z,103681.91
2023-02-27T13:10:19.178Z,103676.66
2023-02-27T13:12:46.769Z,103671.50
2023-02-27T13:15:56.576Z,103670.94
2023-02-27T13:18:46.000Z,103670.38
2023-02-27T13:21:25.310Z,103675.88
2023-02-27T13:24:11.371Z,103662.63
2023-02-27T13:27:03.777Z,103654.78
2023-02-27T13:29:41.732Z,103661.19
2023-02-27T13:32:12.493Z,103672.00
2023-02-27T13:34:45.446Z,103664.09
2023-02-27T13:37:13.109Z,103663.50
2023-02-27T13:39:47.180Z,103657.66
2023-02-27T13:42:27.239Z,103654.38
2023-02-27T13:45:03.526Z,103662.25
2023-02-27T13:47:31.138Z,103661.28
2023-02-27T13:50:02.025Z,103663.66
2023-02-27T13:52:29.632Z,103659.91
2023-02-27T13:55:06.309Z,103665.13
2023-02-27T13:57:39.390Z,103668.75
2023-02-27T14:00:18.649Z,103664.47
2023-02-27T14:02:59.917Z,103667.28
2023-02-27T14:06:26.000Z,103666.41
2023-02-27T14:09:08.813Z,103667.31
2023-02-27T14:11:53.390Z,103663.09
2023-02-27T14:14:50.402Z,103665.63
2023-02-27T14:17:36.557Z,103665.72
2023-02-27T14:20:34.405Z,103675.44
2023-02-27T14:23:17.560Z,103677.25
2023-02-27T14:25:53.411Z,103673.84
2023-02-27T14:28:42.227Z,103667.88
2023-02-27T14:31:26.037Z,103666.09
2023-02-27T14:33:56.366Z,103668.78
2023-02-27T14:36:26.944Z,103651.97
2023-02-27T14:38:59.643Z,103653.56
2023-02-27T14:41:42.178Z,103660.44
2023-02-27T14:44:19.874Z,103659.22
2023-02-27T14:46:47.586Z,103658.25
2023-02-27T14:49:26.026Z,103664.47
2023-02-27T14:51:54.914Z,103660.06
2023-02-27T14:54:24.609Z,103666.50
2023-02-27T14:56:57.274Z,103659.78
2023-02-27T14:59:27.569Z,103667.97
2023-02-27T15:01:57.180Z,103666.28
2023-02-27T15:04:29.116Z,103667.19
2023-02-27T15:06:58.269Z,103656.78
2023-02-27T15:09:42.961Z,103664.94
2023-02-27T15:12:17.893Z,103671.19
2023-02-27T15:14:53.204Z,103664.06
2023-02-27T15:17:42.651Z,103664.94
2023-02-27T15:20:36.939Z,103659.56
2023-02-27T15:23:21.702Z,103664.94
2023-02-27T15:25:49.468Z,103661.50
2023-02-27T15:28:26.867Z,103667.81
2023-02-27T15:30:57.195Z,103659.91
2023-02-27T15:33:30.449Z,103669.00
2023-02-27T15:35:59.385Z,103661.03
2023-02-27T15:38:29.338Z,103662.81
2023-02-27T15:40:58.817Z,103658.38
2023-02-27T15:43:28.194Z,103657.47
2023-02-27T15:45:58.377Z,103660.13
2023-02-27T15:48:28.488Z,103655.63
2023-02-27T15:51:01.139Z,103659.13
2023-02-27T15:53:34.029Z,103660.84
2023-02-27T15:56:06.440Z,103652.03
2023-02-27T15:58:37.762Z,103649.34
2023-02-27T16:01:09.503Z,103661.78
2023-02-27T16:03:41.753Z,103647.63
2023-02-27T16:06:15.428Z,103661.78
2023-02-27T16:08:48.046Z,103654.72
2023-02-27T16:11:30.983Z,103651.16
2023-02-27T16:13:59.648Z,103656.59
2023-02-27T16:16:37.570Z,103655.94
2023-02-27T16:19:29.470Z,103657.84
2023-02-27T16:22:15.093Z,103657.97
2023-02-27T16:24:43.657Z,103654.56
2023-02-27T16:27:29.597Z,103656.31
2023-02-27T16:30:02.989Z,103661.66
2023-02-27T16:32:39.746Z,103658.97
2023-02-27T16:35:17.014Z,103660.78
2023-02-27T16:37:46.380Z,103656.47
2023-02-27T16:40:23.468Z,103657.47
2023-02-27T16:42:52.853Z,103654.03
2023-02-27T16:45:26.488Z,103649.63
2023-02-27T16:47:56.942Z,103642.59
2023-02-27T16:50:32.197Z,103648.88
2023-02-27T16:53:00.109Z,103650.72
2023-02-27T16:55:27.997Z,103651.69
2023-02-27T16:57:56.024Z,103644.69
2023-02-27T17:00:23.908Z,103646.41
2023-02-27T17:02:51.563Z,103650.00
2023-02-27T17:05:19.299Z,103656.28
2023-02-27T17:07:47.170Z,103661.66
2023-02-27T17:10:20.126Z,103659.06
2023-02-27T17:12:48.100Z,103662.63
2023-02-27T17:15:15.911Z,103658.25
2023-02-27T17:17:44.157Z,103666.25
2023-02-27T17:20:13.185Z,103672.44
2023-02-27T17:22:44.955Z,103672.44
2023-02-27T17:25:13.881Z,103672.44
2023-02-27T17:27:44.774Z,103668.06
2023-02-27T17:30:14.304Z,103665.41
2023-02-27T17:32:41.972Z,103667.19
2023-02-27T17:35:09.807Z,103672.50
2023-02-27T17:37:37.860Z,103675.16
2023-02-27T17:40:08.168Z,103676.09
2023-02-27T17:42:37.049Z,103676.09
2023-02-27T17:45:06.470Z,103684.13
2023-02-27T17:47:34.815Z,103688.50
2023-02-27T17:50:04.187Z,103693.88
2023-02-27T17:52:32.840Z,103698.38
2023-02-27T17:55:00.496Z,103697.47
2023-02-27T17:57:28.407Z,103697.50
2023-02-27T17:59:56.413Z,103698.41
2023-02-27T18:02:24.597Z,103692.22
2023-02-27T18:04:53.138Z,103690.44
2023-02-27T18:07:20.723Z,103702.81
2023-02-27T18:09:48.440Z,103706.34
2023-02-27T18:12:16.136Z,103698.41
2023-02-27T18:14:43.983Z,103700.28
2023-02-27T18:17:13.203Z,103705.59
2023-02-27T18:19:42.019Z,103710.09
2023-02-27T18:22:10.958Z,103701.25
2023-02-27T18:24:38.834Z,103703.13
2023-02-27T18:27:06.625Z,103704.88
2023-02-27T18:29:34.368Z,103711.09
2023-02-27T18:32:02.091Z,103704.94
2023-02-27T18:37:40.118Z,103711.28
2023-02-27T18:40:08.764Z,103710.50
2023-02-27T18:42:36.301Z,103712.34
2023-02-27T18:45:04.213Z,103716.75
2023-02-27T18:47:31.906Z,103713.28
2023-02-27T18:49:59.608Z,103721.25
2023-02-27T18:52:28.953Z,103720.50
2023-02-27T18:54:57.121Z,103719.66
2023-02-27T18:57:24.775Z,103715.22
2023-02-27T18:59:52.402Z,103716.06
2023-02-27T19:02:22.516Z,103717.00
2023-02-27T19:04:51.694Z,103722.28
2023-02-27T19:07:20.678Z,103717.88
2023-02-27T19:09:48.246Z,103717.06
2023-02-27T19:12:15.915Z,103714.41
2023-02-27T19:14:43.591Z,103717.09
2023-02-27T19:17:11.553Z,103718.91
2023-02-27T19:19:39.148Z,103720.69
2023-02-27T19:22:07.145Z,103711.00
2023-02-27T19:24:34.775Z,103716.31
2023-02-27T19:27:02.908Z,103716.31
2023-02-27T19:29:30.659Z,103713.72
2023-02-27T19:31:58.306Z,103718.13
2023-02-27T19:34:26.194Z,103718.13
2023-02-27T19:36:53.748Z,103722.56
2023-02-27T19:39:23.045Z,103725.25
2023-02-27T19:41:50.767Z,103724.38
2023-02-27T19:44:18.599Z,103721.75
2023-02-27T19:46:51.749Z,103720.94
2023-02-27T19:49:19.997Z,103722.75
2023-02-27T19:51:47.682Z,103721.88
2023-02-27T19:54:15.974Z,103716.63
2023-02-27T19:56:43.780Z,103720.25
2023-02-27T19:59:12.584Z,103720.31
2023-02-27T20:01:40.890Z,103714.19
2023-02-27T20:04:11.231Z,103716.00
2023-02-27T20:06:44.994Z,103712.47
2023-02-27T20:09:16.094Z,103717.78
2023-02-27T20:11:45.007Z,103718.69
2023-02-27T20:14:14.350Z,103717.88
2023-02-27T20:16:43.197Z,103707.31
2023-02-27T20:19:14.117Z,103719.69
2023-02-27T20:21:42.533Z,103717.00
2023-02-27T20:24:10.856Z,103723.19
2023-02-27T20:26:44.151Z,103717.88
2023-02-27T20:29:18.929Z,103724.94
2023-02-27T20:31:48.697Z,103714.28
2023-02-27T20:34:22.012Z,103726.72
2023-02-27T20:36:53.777Z,103732.88
2023-02-27T20:39:22.237Z,103732.88
2023-02-27T20:41:50.006Z,103728.44
2023-02-27T20:44:18.093Z,103731.09
2023-02-27T20:46:49.304Z,103724.00
2023-02-27T20:49:22.128Z,103727.56
2023-02-27T20:51:50.338Z,103725.78
2023-02-27T20:54:20.792Z,103718.69
2023-02-27T20:56:52.323Z,103726.66
2023-02-27T20:59:22.034Z,103727.56
2023-02-27T21:01:52.747Z,103730.19
2023-02-27T21:04:42.296Z,103728.38
2023-02-27T21:07:12.034Z,103722.25
2023-02-27T21:09:40.495Z,103717.88
2023-02-27T21:12:09.345Z,103722.38
2023-02-27T21:14:37.633Z,103713.56
2023-02-27T21:17:05.703Z,103716.22
2023-02-27T21:19:33.642Z,103720.59
2023-02-27T21:22:01.289Z,103711.81
2023-02-27T21:24:32.331Z,103712.63
2023-02-27T21:27:00.068Z,103717.94
2023-02-27T21:29:28.190Z,103714.41
2023-02-27T21:31:55.761Z,103724.13
2023-02-27T21:34:30.195Z,103719.69
2023-02-27T21:36:57.863Z,103721.44
2023-02-27T21:39:28.358Z,103722.38
2023-02-27T21:41:56.174Z,103721.56
2023-02-27T21:44:27.167Z,103720.66
2023-02-27T21:46:55.691Z,103710.03
2023-02-27T21:49:26.636Z,103721.56
2023-02-27T21:51:56.264Z,103725.03
2023-02-27T21:54:23.979Z,103728.56
2023-02-27T21:56:51.778Z,103721.47
2023-02-27T21:59:20.331Z,103719.69
2023-02-27T22:01:48.807Z,103722.31
2023-02-27T22:04:19.142Z,103719.63
2023-02-27T22:06:48.168Z,103713.41
2023-02-27T22:09:16.062Z,103709.84
2023-02-27T22:11:43.914Z,103715.16
2023-02-27T22:14:12.415Z,103720.47
2023-02-27T22:16:41.544Z,103718.69
2023-02-27T22:19:19.814Z,103723.13
2023-02-27T22:21:48.220Z,103723.13
2023-02-27T22:24:15.913Z,103732.94
2023-02-27T22:26:44.621Z,103731.16
2023-02-27T22:29:12.162Z,103730.28
2023-02-27T22:31:50.535Z,103731.16
2023-02-27T22:34:19.031Z,103734.72
2023-02-27T22:36:48.776Z,103740.03
2023-02-27T22:39:16.815Z,103732.13
2023-02-27T22:41:46.117Z,103741.88
2023-02-27T22:44:23.534Z,103748.91
2023-02-27T22:46:52.762Z,103744.53
2023-02-27T22:49:23.121Z,103752.50
2023-02-27T22:51:52.335Z,103754.28
2023-02-27T22:54:22.409Z,103754.22
2023-02-27T22:56:55.214Z,103764.03
2023-02-27T22:59:24.082Z,103766.69
2023-02-27T23:01:52.222Z,103762.25
2023-02-27T23:04:22.177Z,103765.81
2023-02-27T23:06:52.572Z,103760.44
2023-02-27T23:09:22.870Z,103771.06
2023-02-27T23:11:50.439Z,103767.50
2023-02-27T23:14:18.050Z,103764.84
2023-02-27T23:16:46.726Z,103761.25
2023-02-27T23:19:17.206Z,103765.69
2023-02-27T23:21:44.954Z,103758.63
2023-02-27T23:24:16.023Z,103763.97
2023-02-27T23:26:46.230Z,103764.84
2023-02-27T23:29:14.071Z,103765.78
2023-02-27T23:31:42.504Z,103760.44
2023-02-27T23:34:10.734Z,103763.97
2023-02-27T23:36:39.044Z,103767.53
2023-02-27T23:39:07.909Z,103766.66
2023-02-27T23:41:35.747Z,103769.31
2023-02-27T23:44:22.299Z,103763.19
2023-02-27T23:46:49.937Z,103776.47
2023-02-27T23:49:17.435Z,103775.63
2023-02-27T23:51:45.163Z,103776.47
2023-02-27T23:54:12.705Z,103769.41
2023-02-27T23:56:40.407Z,103772.91
2023-02-27T23:59:08.014Z,103778.25
